Manzanola, Colorado
Current Conditions -  °F | °C
As of 5:53 AM on Saturday 25 Oct 2014 (Local Time) from KLHX Reporting Station
Clear Clear  
Wind Chill: 44°   Ceiling: Unl
Heat Index: 47°   Visibility: 10mi
Dew Point: 31°   Wind: 7mph
Humidity: 54%   Direction: 200°SSW
Pressure: 30.15"   Gusts: NA
Location:  38.11°N, 103.87°W
Report Text: KLHX 251153Z AUTO 20006KT 10SM CLR 08/M01 A3015 RMK AO2 SLP167 T00831006 10106 20061 53004
Loading
Personal Weather Stations






























Interactive Weather Map New forecast layout! Learn more

10-Day Weather Forecast

Advertisements
Track Severe Weather on mobile